sensor_id;sensor_type;location;lat;lon;timestamp;P1;durP1;ratioP1;P2;durP2;ratioP2
9809;SDS011;4944;52.514;13.192;2022-11-15T00:02:06;23.60;;;19.23;;
9809;SDS011;4944;52.514;13.192;2022-11-15T00:04:34;23.50;;;20.37;;
9809;SDS011;4944;52.514;13.192;2022-11-15T00:07:01;22.73;;;19.27;;
9809;SDS011;4944;52.514;13.192;2022-11-15T00:09:28;21.57;;;18.73;;
9809;SDS011;4944;52.514;13.192;2022-11-15T00:11:55;22.80;;;19.53;;
9809;SDS011;4944;52.514;13.192;2022-11-15T00:14:22;25.67;;;20.60;;
9809;SDS011;4944;52.514;13.192;2022-11-15T00:16:49;23.10;;;19.80;;
9809;SDS011;4944;52.514;13.192;2022-11-15T00:19:16;25.33;;;19.93;;
9809;SDS011;4944;52.514;13.192;2022-11-15T00:21:44;23.73;;;19.57;;
9809;SDS011;4944;52.514;13.192;2022-11-15T00:24:11;23.00;;;19.90;;
9809;SDS011;4944;52.514;13.192;2022-11-15T00:26:38;24.07;;;19.90;;
9809;SDS011;4944;52.514;13.192;2022-11-15T00:29:04;24.33;;;20.30;;
9809;SDS011;4944;52.514;13.192;2022-11-15T00:31:31;24.13;;;20.20;;
9809;SDS011;4944;52.514;13.192;2022-11-15T00:33:58;25.37;;;19.83;;
9809;SDS011;4944;52.514;13.192;2022-11-15T00:36:25;24.97;;;20.70;;
9809;SDS011;4944;52.514;13.192;2022-11-15T00:38:53;24.27;;;19.57;;
9809;SDS011;4944;52.514;13.192;2022-11-15T00:41:20;23.63;;;20.50;;
9809;SDS011;4944;52.514;13.192;2022-11-15T00:43:47;24.87;;;20.23;;
9809;SDS011;4944;52.514;13.192;2022-11-15T00:46:14;25.27;;;20.43;;
9809;SDS011;4944;52.514;13.192;2022-11-15T00:48:41;25.03;;;20.83;;
9809;SDS011;4944;52.514;13.192;2022-11-15T00:51:08;25.50;;;19.87;;
9809;SDS011;4944;52.514;13.192;2022-11-15T00:53:35;25.63;;;20.10;;
9809;SDS011;4944;52.514;13.192;2022-11-15T00:56:03;22.77;;;19.17;;
9809;SDS011;4944;52.514;13.192;2022-11-15T00:58:30;23.77;;;19.40;;
9809;SDS011;4944;52.514;13.192;2022-11-15T01:01:04;24.60;;;20.93;;
9809;SDS011;4944;52.514;13.192;2022-11-15T01:03:33;23.67;;;20.33;;
9809;SDS011;4944;52.514;13.192;2022-11-15T01:06:00;25.43;;;19.83;;
9809;SDS011;4944;52.514;13.192;2022-11-15T01:08:27;25.67;;;20.47;;
9809;SDS011;4944;52.514;13.192;2022-11-15T01:10:54;24.60;;;20.17;;
9809;SDS011;4944;52.514;13.192;2022-11-15T01:13:27;25.03;;;20.37;;
9809;SDS011;4944;52.514;13.192;2022-11-15T01:15:56;25.23;;;20.50;;
9809;SDS011;4944;52.514;13.192;2022-11-15T01:18:23;24.83;;;20.87;;
9809;SDS011;4944;52.514;13.192;2022-11-15T01:20:50;24.83;;;20.73;;
9809;SDS011;4944;52.514;13.192;2022-11-15T01:23:17;25.10;;;21.40;;
9809;SDS011;4944;52.514;13.192;2022-11-15T01:25:44;25.37;;;21.07;;
9809;SDS011;4944;52.514;13.192;2022-11-15T01:28:11;25.70;;;20.43;;
9809;SDS011;4944;52.514;13.192;2022-11-15T01:30:39;25.43;;;21.43;;
9809;SDS011;4944;52.514;13.192;2022-11-15T01:33:06;26.13;;;20.10;;
9809;SDS011;4944;52.514;13.192;2022-11-15T01:35:33;26.77;;;20.60;;
9809;SDS011;4944;52.514;13.192;2022-11-15T01:38:04;24.87;;;20.07;;
9809;SDS011;4944;52.514;13.192;2022-11-15T01:40:30;24.77;;;19.63;;
9809;SDS011;4944;52.514;13.192;2022-11-15T01:42:57;23.70;;;20.27;;
9809;SDS011;4944;52.514;13.192;2022-11-15T01:45:24;24.77;;;20.10;;
9809;SDS011;4944;52.514;13.192;2022-11-15T01:47:53;29.17;;;21.43;;
9809;SDS011;4944;52.514;13.192;2022-11-15T01:50:22;25.57;;;20.53;;
9809;SDS011;4944;52.514;13.192;2022-11-15T01:52:54;25.33;;;20.03;;
9809;SDS011;4944;52.514;13.192;2022-11-15T01:55:24;27.43;;;20.10;;
9809;SDS011;4944;52.514;13.192;2022-11-15T01:57:53;25.30;;;20.40;;
9809;SDS011;4944;52.514;13.192;2022-11-15T02:00:24;25.23;;;19.57;;
9809;SDS011;4944;52.514;13.192;2022-11-15T02:02:50;25.60;;;20.33;;
9809;SDS011;4944;52.514;13.192;2022-11-15T02:05:19;24.90;;;20.13;;
9809;SDS011;4944;52.514;13.192;2022-11-15T02:07:46;24.83;;;20.27;;
9809;SDS011;4944;52.514;13.192;2022-11-15T02:10:17;22.33;;;19.73;;
9809;SDS011;4944;52.514;13.192;2022-11-15T02:12:45;24.37;;;20.10;;
9809;SDS011;4944;52.514;13.192;2022-11-15T02:15:12;23.70;;;19.70;;
9809;SDS011;4944;52.514;13.192;2022-11-15T02:17:44;24.13;;;20.83;;
9809;SDS011;4944;52.514;13.192;2022-11-15T02:20:43;24.90;;;19.60;;
9809;SDS011;4944;52.514;13.192;2022-11-15T02:32:48;24.40;;;20.07;;
9809;SDS011;4944;52.514;13.192;2022-11-15T02:35:20;23.10;;;19.20;;
9809;SDS011;4944;52.514;13.192;2022-11-15T02:37:55;23.40;;;19.87;;
9809;SDS011;4944;52.514;13.192;2022-11-15T02:40:27;25.73;;;20.27;;
9809;SDS011;4944;52.514;13.192;2022-11-15T02:43:04;23.60;;;19.57;;
9809;SDS011;4944;52.514;13.192;2022-11-15T02:45:53;26.60;;;21.27;;
9809;SDS011;4944;52.514;13.192;2022-11-15T02:48:28;25.60;;;20.83;;
9809;SDS011;4944;52.514;13.192;2022-11-15T02:50:56;23.53;;;19.70;;
9809;SDS011;4944;52.514;13.192;2022-11-15T02:53:24;26.03;;;20.23;;
9809;SDS011;4944;52.514;13.192;2022-11-15T02:55:51;23.47;;;19.73;;
9809;SDS011;4944;52.514;13.192;2022-11-15T03:01:18;23.73;;;18.97;;
9809;SDS011;4944;52.514;13.192;2022-11-15T03:03:59;24.07;;;19.33;;
9809;SDS011;4944;52.514;13.192;2022-11-15T03:06:33;23.87;;;19.57;;
9809;SDS011;4944;52.514;13.192;2022-11-15T03:09:05;24.80;;;19.73;;
9809;SDS011;4944;52.514;13.192;2022-11-15T03:11:40;23.97;;;19.50;;
9809;SDS011;4944;52.514;13.192;2022-11-15T03:14:13;23.60;;;19.83;;
9809;SDS011;4944;52.514;13.192;2022-11-15T03:16:48;25.47;;;20.50;;
9809;SDS011;4944;52.514;13.192;2022-11-15T03:19:25;24.70;;;20.30;;
9809;SDS011;4944;52.514;13.192;2022-11-15T03:21:57;25.23;;;20.13;;
9809;SDS011;4944;52.514;13.192;2022-11-15T03:24:26;24.17;;;19.50;;
9809;SDS011;4944;52.514;13.192;2022-11-15T03:26:56;25.60;;;20.13;;
9809;SDS011;4944;52.514;13.192;2022-11-15T03:29:27;22.20;;;19.17;;
9809;SDS011;4944;52.514;13.192;2022-11-15T03:31:59;24.83;;;18.87;;
9809;SDS011;4944;52.514;13.192;2022-11-15T03:34:32;23.47;;;18.87;;
9809;SDS011;4944;52.514;13.192;2022-11-15T03:37:04;22.60;;;18.70;;
9809;SDS011;4944;52.514;13.192;2022-11-15T03:39:31;24.17;;;19.00;;
9809;SDS011;4944;52.514;13.192;2022-11-15T03:42:02;24.93;;;19.83;;
9809;SDS011;4944;52.514;13.192;2022-11-15T03:44:40;24.73;;;18.90;;
9809;SDS011;4944;52.514;13.192;2022-11-15T03:47:12;25.37;;;19.67;;
9809;SDS011;4944;52.514;13.192;2022-11-15T03:49:46;25.03;;;18.70;;
9809;SDS011;4944;52.514;13.192;2022-11-15T03:52:17;24.43;;;18.37;;
9809;SDS011;4944;52.514;13.192;2022-11-15T03:54:49;22.37;;;18.87;;
9809;SDS011;4944;52.514;13.192;2022-11-15T03:57:17;22.83;;;18.37;;
9809;SDS011;4944;52.514;13.192;2022-11-15T03:59:44;25.13;;;18.77;;
9809;SDS011;4944;52.514;13.192;2022-11-15T04:02:11;23.00;;;18.43;;
9809;SDS011;4944;52.514;13.192;2022-11-15T04:04:38;21.63;;;17.77;;
9809;SDS011;4944;52.514;13.192;2022-11-15T04:07:07;23.10;;;18.50;;
9809;SDS011;4944;52.514;13.192;2022-11-15T04:09:33;23.57;;;19.30;;
9809;SDS011;4944;52.514;13.192;2022-11-15T04:12:21;23.37;;;18.50;;
9809;SDS011;4944;52.514;13.192;2022-11-15T04:14:55;21.20;;;18.67;;
9809;SDS011;4944;52.514;13.192;2022-11-15T04:17:33;24.77;;;18.73;;
9809;SDS011;4944;52.514;13.192;2022-11-15T04:20:00;23.80;;;18.93;;
9809;SDS011;4944;52.514;13.192;2022-11-15T04:22:46;21.37;;;18.03;;
9809;SDS011;4944;52.514;13.192;2022-11-15T04:25:31;23.83;;;17.83;;
9809;SDS011;4944;52.514;13.192;2022-11-15T04:27:58;22.50;;;18.50;;
9809;SDS011;4944;52.514;13.192;2022-11-15T04:30:24;21.83;;;18.43;;
9809;SDS011;4944;52.514;13.192;2022-11-15T04:32:51;20.87;;;17.77;;
9809;SDS011;4944;52.514;13.192;2022-11-15T04:35:18;22.40;;;18.03;;
9809;SDS011;4944;52.514;13.192;2022-11-15T04:37:46;22.40;;;18.47;;
9809;SDS011;4944;52.514;13.192;2022-11-15T04:40:12;21.40;;;17.93;;
9809;SDS011;4944;52.514;13.192;2022-11-15T04:42:40;21.33;;;17.53;;
9809;SDS011;4944;52.514;13.192;2022-11-15T04:45:08;21.33;;;17.63;;
9809;SDS011;4944;52.514;13.192;2022-11-15T04:47:35;20.07;;;16.73;;
9809;SDS011;4944;52.514;13.192;2022-11-15T04:50:02;22.67;;;17.43;;
9809;SDS011;4944;52.514;13.192;2022-11-15T04:52:30;19.43;;;16.80;;
9809;SDS011;4944;52.514;13.192;2022-11-15T04:54:58;21.33;;;17.13;;
9809;SDS011;4944;52.514;13.192;2022-11-15T04:57:25;22.90;;;18.37;;
9809;SDS011;4944;52.514;13.192;2022-11-15T04:59:52;20.57;;;17.07;;
9809;SDS011;4944;52.514;13.192;2022-11-15T05:02:22;21.00;;;16.97;;
9809;SDS011;4944;52.514;13.192;2022-11-15T05:04:48;21.47;;;17.33;;
9809;SDS011;4944;52.514;13.192;2022-11-15T05:07:14;21.97;;;16.67;;
9809;SDS011;4944;52.514;13.192;2022-11-15T05:09:41;20.80;;;17.00;;
9809;SDS011;4944;52.514;13.192;2022-11-15T05:12:09;20.30;;;17.10;;
9809;SDS011;4944;52.514;13.192;2022-11-15T05:14:36;23.10;;;16.90;;
9809;SDS011;4944;52.514;13.192;2022-11-15T05:17:03;19.77;;;16.43;;
9809;SDS011;4944;52.514;13.192;2022-11-15T05:19:30;19.00;;;16.63;;
9809;SDS011;4944;52.514;13.192;2022-11-15T05:21:57;19.43;;;17.17;;
9809;SDS011;4944;52.514;13.192;2022-11-15T05:24:24;21.47;;;16.67;;
9809;SDS011;4944;52.514;13.192;2022-11-15T05:26:50;19.60;;;16.00;;
9809;SDS011;4944;52.514;13.192;2022-11-15T05:29:19;19.20;;;16.60;;
9809;SDS011;4944;52.514;13.192;2022-11-15T05:31:46;20.23;;;15.93;;
9809;SDS011;4944;52.514;13.192;2022-11-15T05:34:13;19.10;;;16.50;;
9809;SDS011;4944;52.514;13.192;2022-11-15T05:36:40;18.70;;;16.30;;
9809;SDS011;4944;52.514;13.192;2022-11-15T05:39:09;20.87;;;17.20;;
9809;SDS011;4944;52.514;13.192;2022-11-15T05:41:37;23.70;;;16.63;;
9809;SDS011;4944;52.514;13.192;2022-11-15T05:44:07;18.30;;;16.13;;
9809;SDS011;4944;52.514;13.192;2022-11-15T05:46:38;20.50;;;17.23;;
9809;SDS011;4944;52.514;13.192;2022-11-15T05:49:07;19.83;;;15.93;;
9809;SDS011;4944;52.514;13.192;2022-11-15T05:51:37;21.27;;;15.37;;
9809;SDS011;4944;52.514;13.192;2022-11-15T05:54:05;19.30;;;15.90;;
9809;SDS011;4944;52.514;13.192;2022-11-15T05:56:32;19.10;;;15.93;;
9809;SDS011;4944;52.514;13.192;2022-11-15T05:58:59;19.97;;;16.67;;
9809;SDS011;4944;52.514;13.192;2022-11-15T06:01:26;19.93;;;16.50;;
9809;SDS011;4944;52.514;13.192;2022-11-15T06:03:55;21.17;;;15.77;;
9809;SDS011;4944;52.514;13.192;2022-11-15T06:06:22;20.10;;;16.97;;
9809;SDS011;4944;52.514;13.192;2022-11-15T06:08:49;17.70;;;15.37;;
9809;SDS011;4944;52.514;13.192;2022-11-15T06:11:15;19.60;;;16.00;;
9809;SDS011;4944;52.514;13.192;2022-11-15T06:13:42;17.27;;;15.37;;
9809;SDS011;4944;52.514;13.192;2022-11-15T06:16:09;19.03;;;15.53;;
9809;SDS011;4944;52.514;13.192;2022-11-15T06:18:36;18.40;;;15.40;;
9809;SDS011;4944;52.514;13.192;2022-11-15T06:21:05;20.43;;;16.40;;
9809;SDS011;4944;52.514;13.192;2022-11-15T06:23:32;20.80;;;15.77;;
9809;SDS011;4944;52.514;13.192;2022-11-15T06:26:00;17.17;;;15.37;;
9809;SDS011;4944;52.514;13.192;2022-11-15T06:28:28;20.17;;;15.07;;
9809;SDS011;4944;52.514;13.192;2022-11-15T06:30:56;19.10;;;15.23;;
9809;SDS011;4944;52.514;13.192;2022-11-15T06:33:27;17.23;;;15.33;;
9809;SDS011;4944;52.514;13.192;2022-11-15T06:35:55;19.90;;;16.00;;
9809;SDS011;4944;52.514;13.192;2022-11-15T06:38:23;20.30;;;15.77;;
9809;SDS011;4944;52.514;13.192;2022-11-15T06:40:50;20.33;;;15.60;;
9809;SDS011;4944;52.514;13.192;2022-11-15T06:43:17;17.53;;;14.77;;
9809;SDS011;4944;52.514;13.192;2022-11-15T06:45:43;18.20;;;15.13;;
9809;SDS011;4944;52.514;13.192;2022-11-15T06:48:10;18.50;;;16.10;;
9809;SDS011;4944;52.514;13.192;2022-11-15T06:50:37;19.83;;;15.57;;
9809;SDS011;4944;52.514;13.192;2022-11-15T06:53:04;21.33;;;16.03;;
9809;SDS011;4944;52.514;13.192;2022-11-15T06:55:32;18.57;;;15.93;;
9809;SDS011;4944;52.514;13.192;2022-11-15T06:57:59;19.13;;;15.73;;
9809;SDS011;4944;52.514;13.192;2022-11-15T07:00:26;18.13;;;15.57;;
9809;SDS011;4944;52.514;13.192;2022-11-15T07:02:53;21.37;;;16.07;;
9809;SDS011;4944;52.514;13.192;2022-11-15T07:05:20;18.57;;;15.87;;
9809;SDS011;4944;52.514;13.192;2022-11-15T07:07:50;19.47;;;15.40;;
9809;SDS011;4944;52.514;13.192;2022-11-15T07:10:18;20.70;;;15.27;;
9809;SDS011;4944;52.514;13.192;2022-11-15T07:12:47;18.20;;;15.67;;
9809;SDS011;4944;52.514;13.192;2022-11-15T07:15:14;20.87;;;16.57;;
9809;SDS011;4944;52.514;13.192;2022-11-15T07:17:41;18.63;;;15.70;;
9809;SDS011;4944;52.514;13.192;2022-11-15T07:20:08;19.73;;;15.80;;
9809;SDS011;4944;52.514;13.192;2022-11-15T07:22:36;19.53;;;15.30;;
9809;SDS011;4944;52.514;13.192;2022-11-15T07:25:03;18.37;;;16.20;;
9809;SDS011;4944;52.514;13.192;2022-11-15T07:27:30;19.33;;;15.53;;
9809;SDS011;4944;52.514;13.192;2022-11-15T07:29:58;16.50;;;14.50;;
9809;SDS011;4944;52.514;13.192;2022-11-15T07:32:26;21.17;;;15.90;;
9809;SDS011;4944;52.514;13.192;2022-11-15T07:34:53;17.57;;;15.27;;
9809;SDS011;4944;52.514;13.192;2022-11-15T07:37:19;17.40;;;15.50;;
9809;SDS011;4944;52.514;13.192;2022-11-15T07:39:46;18.17;;;15.00;;
9809;SDS011;4944;52.514;13.192;2022-11-15T07:42:13;16.50;;;14.73;;
9809;SDS011;4944;52.514;13.192;2022-11-15T07:44:58;17.80;;;15.50;;
9809;SDS011;4944;52.514;13.192;2022-11-15T07:47:27;16.83;;;14.73;;
9809;SDS011;4944;52.514;13.192;2022-11-15T07:49:54;18.10;;;15.47;;
9809;SDS011;4944;52.514;13.192;2022-11-15T07:52:21;16.93;;;14.73;;
9809;SDS011;4944;52.514;13.192;2022-11-15T07:54:48;17.83;;;15.87;;
9809;SDS011;4944;52.514;13.192;2022-11-15T07:57:15;18.10;;;15.20;;
9809;SDS011;4944;52.514;13.192;2022-11-15T07:59:42;17.70;;;15.77;;
9809;SDS011;4944;52.514;13.192;2022-11-15T08:02:10;17.70;;;15.10;;
9809;SDS011;4944;52.514;13.192;2022-11-15T08:04:37;17.57;;;15.50;;
9809;SDS011;4944;52.514;13.192;2022-11-15T08:07:04;18.00;;;15.93;;
9809;SDS011;4944;52.514;13.192;2022-11-15T08:09:31;17.93;;;15.03;;
9809;SDS011;4944;52.514;13.192;2022-11-15T08:11:58;19.27;;;15.47;;
9809;SDS011;4944;52.514;13.192;2022-11-15T08:14:24;19.23;;;15.60;;
9809;SDS011;4944;52.514;13.192;2022-11-15T08:16:51;18.20;;;15.47;;
9809;SDS011;4944;52.514;13.192;2022-11-15T08:19:20;18.03;;;15.30;;
9809;SDS011;4944;52.514;13.192;2022-11-15T08:21:47;16.87;;;15.07;;
9809;SDS011;4944;52.514;13.192;2022-11-15T08:24:13;16.87;;;14.73;;
9809;SDS011;4944;52.514;13.192;2022-11-15T08:26:41;17.43;;;15.07;;
9809;SDS011;4944;52.514;13.192;2022-11-15T08:29:08;17.70;;;15.03;;
9809;SDS011;4944;52.514;13.192;2022-11-15T08:31:35;16.83;;;14.97;;
9809;SDS011;4944;52.514;13.192;2022-11-15T08:34:02;16.37;;;14.60;;
9809;SDS011;4944;52.514;13.192;2022-11-15T08:36:31;15.50;;;13.37;;
9809;SDS011;4944;52.514;13.192;2022-11-15T08:38:58;15.67;;;14.07;;
9809;SDS011;4944;52.514;13.192;2022-11-15T08:41:25;15.70;;;14.03;;
9809;SDS011;4944;52.514;13.192;2022-11-15T08:43:55;15.43;;;13.83;;
9809;SDS011;4944;52.514;13.192;2022-11-15T08:46:22;16.60;;;14.90;;
9809;SDS011;4944;52.514;13.192;2022-11-15T08:48:49;16.17;;;14.47;;
9809;SDS011;4944;52.514;13.192;2022-11-15T08:51:16;16.10;;;13.63;;
9809;SDS011;4944;52.514;13.192;2022-11-15T08:53:44;14.73;;;13.33;;
9809;SDS011;4944;52.514;13.192;2022-11-15T08:56:12;15.70;;;13.43;;
9809;SDS011;4944;52.514;13.192;2022-11-15T08:58:40;15.67;;;13.67;;
9809;SDS011;4944;52.514;13.192;2022-11-15T09:01:13;15.30;;;12.70;;
9809;SDS011;4944;52.514;13.192;2022-11-15T09:03:42;14.50;;;13.10;;
9809;SDS011;4944;52.514;13.192;2022-11-15T09:06:09;14.30;;;12.83;;
9809;SDS011;4944;52.514;13.192;2022-11-15T09:08:36;13.70;;;12.33;;
9809;SDS011;4944;52.514;13.192;2022-11-15T09:11:05;16.10;;;13.43;;
9809;SDS011;4944;52.514;13.192;2022-11-15T09:13:32;14.50;;;12.87;;
9809;SDS011;4944;52.514;13.192;2022-11-15T09:16:00;14.27;;;12.50;;
9809;SDS011;4944;52.514;13.192;2022-11-15T09:18:27;14.30;;;12.87;;
9809;SDS011;4944;52.514;13.192;2022-11-15T09:20:55;15.17;;;13.37;;
9809;SDS011;4944;52.514;13.192;2022-11-15T09:23:23;15.10;;;13.40;;
9809;SDS011;4944;52.514;13.192;2022-11-15T09:25:50;14.10;;;12.60;;
9809;SDS011;4944;52.514;13.192;2022-11-15T09:28:18;13.13;;;11.83;;
9809;SDS011;4944;52.514;13.192;2022-11-15T09:30:45;15.63;;;14.00;;
9809;SDS011;4944;52.514;13.192;2022-11-15T09:33:12;16.10;;;12.80;;
9809;SDS011;4944;52.514;13.192;2022-11-15T09:35:39;13.90;;;12.40;;
9809;SDS011;4944;52.514;13.192;2022-11-15T09:38:07;14.73;;;12.70;;
9809;SDS011;4944;52.514;13.192;2022-11-15T09:40:35;13.00;;;11.70;;
9809;SDS011;4944;52.514;13.192;2022-11-15T09:43:06;14.60;;;13.03;;
9809;SDS011;4944;52.514;13.192;2022-11-15T09:45:54;14.53;;;12.97;;
9809;SDS011;4944;52.514;13.192;2022-11-15T09:48:36;13.30;;;11.97;;
9809;SDS011;4944;52.514;13.192;2022-11-15T09:51:18;15.23;;;12.43;;
9809;SDS011;4944;52.514;13.192;2022-11-15T09:53:52;15.07;;;13.00;;
9809;SDS011;4944;52.514;13.192;2022-11-15T09:56:26;15.00;;;12.37;;
9809;SDS011;4944;52.514;13.192;2022-11-15T09:58:57;14.80;;;13.37;;
9809;SDS011;4944;52.514;13.192;2022-11-15T10:01:36;14.50;;;12.73;;
9809;SDS011;4944;52.514;13.192;2022-11-15T10:04:10;14.03;;;12.53;;
9809;SDS011;4944;52.514;13.192;2022-11-15T10:06:38;13.63;;;12.33;;
9809;SDS011;4944;52.514;13.192;2022-11-15T10:09:12;14.07;;;12.67;;
9809;SDS011;4944;52.514;13.192;2022-11-15T10:11:43;13.10;;;11.80;;
9809;SDS011;4944;52.514;13.192;2022-11-15T10:14:11;16.90;;;12.53;;
9809;SDS011;4944;52.514;13.192;2022-11-15T10:19:50;12.30;;;11.00;;
9809;SDS011;4944;52.514;13.192;2022-11-15T10:22:27;12.67;;;11.27;;
9809;SDS011;4944;52.514;13.192;2022-11-15T10:27:46;12.50;;;11.20;;
9809;SDS011;4944;52.514;13.192;2022-11-15T10:30:22;13.07;;;11.77;;
9809;SDS011;4944;52.514;13.192;2022-11-15T10:32:57;13.00;;;11.23;;
9809;SDS011;4944;52.514;13.192;2022-11-15T10:35:24;13.00;;;10.47;;
9809;SDS011;4944;52.514;13.192;2022-11-15T10:37:56;11.17;;;10.17;;
9809;SDS011;4944;52.514;13.192;2022-11-15T10:40:32;11.57;;;10.50;;
9809;SDS011;4944;52.514;13.192;2022-11-15T10:43:04;12.93;;;10.30;;
9809;SDS011;4944;52.514;13.192;2022-11-15T10:45:38;12.03;;;10.83;;
9809;SDS011;4944;52.514;13.192;2022-11-15T10:50:54;11.80;;;10.70;;
9809;SDS011;4944;52.514;13.192;2022-11-15T10:53:29;13.03;;;11.70;;
9809;SDS011;4944;52.514;13.192;2022-11-15T10:55:59;12.07;;;10.93;;
9809;SDS011;4944;52.514;13.192;2022-11-15T10:58:36;11.97;;;10.60;;
9809;SDS011;4944;52.514;13.192;2022-11-15T11:01:08;11.00;;;9.90;;
9809;SDS011;4944;52.514;13.192;2022-11-15T11:03:42;11.30;;;10.20;;
9809;SDS011;4944;52.514;13.192;2022-11-15T11:06:11;10.60;;;9.53;;
9809;SDS011;4944;52.514;13.192;2022-11-15T11:08:40;12.10;;;10.80;;
9809;SDS011;4944;52.514;13.192;2022-11-15T11:11:19;11.03;;;10.03;;
9809;SDS011;4944;52.514;13.192;2022-11-15T11:13:46;11.33;;;10.23;;
9809;SDS011;4944;52.514;13.192;2022-11-15T11:16:30;12.13;;;10.17;;
9809;SDS011;4944;52.514;13.192;2022-11-15T11:19:11;11.53;;;10.43;;
9809;SDS011;4944;52.514;13.192;2022-11-15T11:21:58;12.07;;;9.67;;
9809;SDS011;4944;52.514;13.192;2022-11-15T11:24:32;10.73;;;9.63;;
9809;SDS011;4944;52.514;13.192;2022-11-15T11:27:08;12.87;;;9.87;;
9809;SDS011;4944;52.514;13.192;2022-11-15T11:29:50;11.23;;;10.20;;
9809;SDS011;4944;52.514;13.192;2022-11-15T11:32:35;11.20;;;9.90;;
9809;SDS011;4944;52.514;13.192;2022-11-15T11:35:39;11.37;;;10.40;;
9809;SDS011;4944;52.514;13.192;2022-11-15T11:38:22;11.50;;;10.40;;
9809;SDS011;4944;52.514;13.192;2022-11-15T11:41:03;11.17;;;10.03;;
9809;SDS011;4944;52.514;13.192;2022-11-15T11:43:40;11.23;;;9.93;;
9809;SDS011;4944;52.514;13.192;2022-11-15T11:49:08;11.90;;;10.67;;
9809;SDS011;4944;52.514;13.192;2022-11-15T11:51:38;11.90;;;10.53;;
9809;SDS011;4944;52.514;13.192;2022-11-15T11:54:11;11.20;;;10.07;;
9809;SDS011;4944;52.514;13.192;2022-11-15T11:56:41;11.13;;;9.97;;
9809;SDS011;4944;52.514;13.192;2022-11-15T11:59:12;11.67;;;9.67;;
9809;SDS011;4944;52.514;13.192;2022-11-15T12:01:47;11.87;;;9.40;;
9809;SDS011;4944;52.514;13.192;2022-11-15T12:04:15;10.20;;;9.30;;
9809;SDS011;4944;52.514;13.192;2022-11-15T12:06:48;9.37;;;8.37;;
9809;SDS011;4944;52.514;13.192;2022-11-15T12:09:17;9.63;;;8.83;;
9809;SDS011;4944;52.514;13.192;2022-11-15T12:11:51;9.60;;;8.67;;
9809;SDS011;4944;52.514;13.192;2022-11-15T12:14:29;9.53;;;8.60;;
9809;SDS011;4944;52.514;13.192;2022-11-15T12:17:00;10.30;;;9.40;;
9809;SDS011;4944;52.514;13.192;2022-11-15T12:19:28;9.87;;;8.87;;
9809;SDS011;4944;52.514;13.192;2022-11-15T12:21:58;10.20;;;9.07;;
9809;SDS011;4944;52.514;13.192;2022-11-15T12:24:30;9.97;;;9.00;;
9809;SDS011;4944;52.514;13.192;2022-11-15T12:27:01;9.77;;;8.87;;
9809;SDS011;4944;52.514;13.192;2022-11-15T12:29:33;9.50;;;8.60;;
9809;SDS011;4944;52.514;13.192;2022-11-15T12:32:04;8.40;;;7.63;;
9809;SDS011;4944;52.514;13.192;2022-11-15T12:34:44;9.30;;;8.40;;
9809;SDS011;4944;52.514;13.192;2022-11-15T12:46:11;9.03;;;8.23;;
9809;SDS011;4944;52.514;13.192;2022-11-15T12:48:46;8.97;;;8.07;;
9809;SDS011;4944;52.514;13.192;2022-11-15T12:51:22;9.27;;;8.47;;
9809;SDS011;4944;52.514;13.192;2022-11-15T12:57:37;8.57;;;7.70;;
9809;SDS011;4944;52.514;13.192;2022-11-15T13:03:19;9.80;;;8.17;;
9809;SDS011;4944;52.514;13.192;2022-11-15T13:06:04;8.47;;;7.77;;
9809;SDS011;4944;52.514;13.192;2022-11-15T13:08:40;8.90;;;8.00;;
9809;SDS011;4944;52.514;13.192;2022-11-15T13:17:25;8.73;;;7.83;;
9809;SDS011;4944;52.514;13.192;2022-11-15T13:19:59;9.17;;;7.97;;
9809;SDS011;4944;52.514;13.192;2022-11-15T13:22:39;8.43;;;7.80;;
9809;SDS011;4944;52.514;13.192;2022-11-15T13:25:42;8.83;;;8.03;;
9809;SDS011;4944;52.514;13.192;2022-11-15T13:28:26;8.33;;;7.60;;
9809;SDS011;4944;52.514;13.192;2022-11-15T13:30:58;7.73;;;7.13;;
9809;SDS011;4944;52.514;13.192;2022-11-15T13:33:29;8.80;;;7.77;;
9809;SDS011;4944;52.514;13.192;2022-11-15T13:36:00;7.53;;;6.83;;
9809;SDS011;4944;52.514;13.192;2022-11-15T13:38:29;7.27;;;6.70;;
9809;SDS011;4944;52.514;13.192;2022-11-15T13:40:57;7.40;;;6.70;;
9809;SDS011;4944;52.514;13.192;2022-11-15T13:43:28;8.47;;;7.77;;
9809;SDS011;4944;52.514;13.192;2022-11-15T13:46:10;8.57;;;7.40;;
9809;SDS011;4944;52.514;13.192;2022-11-15T13:48:39;8.17;;;7.37;;
9809;SDS011;4944;52.514;13.192;2022-11-15T13:51:08;8.77;;;7.97;;
9809;SDS011;4944;52.514;13.192;2022-11-15T13:53:42;8.87;;;8.10;;
9809;SDS011;4944;52.514;13.192;2022-11-15T13:58:41;8.90;;;8.10;;
9809;SDS011;4944;52.514;13.192;2022-11-15T14:01:13;9.80;;;8.10;;
9809;SDS011;4944;52.514;13.192;2022-11-15T14:03:46;10.00;;;9.03;;
9809;SDS011;4944;52.514;13.192;2022-11-15T14:06:17;9.67;;;8.40;;
9809;SDS011;4944;52.514;13.192;2022-11-15T14:09:15;10.23;;;9.23;;
9809;SDS011;4944;52.514;13.192;2022-11-15T14:11:56;11.57;;;8.87;;
9809;SDS011;4944;52.514;13.192;2022-11-15T14:14:25;10.40;;;9.30;;
9809;SDS011;4944;52.514;13.192;2022-11-15T14:16:53;9.80;;;8.90;;
9809;SDS011;4944;52.514;13.192;2022-11-15T14:19:37;9.67;;;8.70;;
9809;SDS011;4944;52.514;13.192;2022-11-15T14:22:10;9.97;;;8.83;;
9809;SDS011;4944;52.514;13.192;2022-11-15T14:24:43;9.83;;;8.83;;
9809;SDS011;4944;52.514;13.192;2022-11-15T14:27:19;8.83;;;8.03;;
9809;SDS011;4944;52.514;13.192;2022-11-15T14:29:49;10.10;;;9.10;;
9809;SDS011;4944;52.514;13.192;2022-11-15T14:32:17;11.10;;;8.53;;
9809;SDS011;4944;52.514;13.192;2022-11-15T14:34:46;9.33;;;8.30;;
9809;SDS011;4944;52.514;13.192;2022-11-15T14:37:23;9.50;;;8.57;;
9809;SDS011;4944;52.514;13.192;2022-11-15T14:39:52;13.50;;;8.40;;
9809;SDS011;4944;52.514;13.192;2022-11-15T14:42:20;9.03;;;8.17;;
9809;SDS011;4944;52.514;13.192;2022-11-15T14:44:51;11.53;;;9.30;;
9809;SDS011;4944;52.514;13.192;2022-11-15T14:47:18;9.53;;;8.30;;
9809;SDS011;4944;52.514;13.192;2022-11-15T14:49:46;12.97;;;9.70;;
9809;SDS011;4944;52.514;13.192;2022-11-15T14:52:19;12.50;;;9.77;;
9809;SDS011;4944;52.514;13.192;2022-11-15T14:54:52;13.37;;;11.40;;
9809;SDS011;4944;52.514;13.192;2022-11-15T14:57:19;14.90;;;11.30;;
9809;SDS011;4944;52.514;13.192;2022-11-15T14:59:46;13.17;;;11.37;;
9809;SDS011;4944;52.514;13.192;2022-11-15T15:02:16;13.77;;;10.77;;
9809;SDS011;4944;52.514;13.192;2022-11-15T15:04:45;14.00;;;11.10;;
9809;SDS011;4944;52.514;13.192;2022-11-15T15:07:13;12.73;;;10.60;;
9809;SDS011;4944;52.514;13.192;2022-11-15T15:09:40;14.03;;;10.70;;
9809;SDS011;4944;52.514;13.192;2022-11-15T15:12:14;14.60;;;11.50;;
9809;SDS011;4944;52.514;13.192;2022-11-15T15:14:43;12.50;;;10.97;;
9809;SDS011;4944;52.514;13.192;2022-11-15T15:17:11;12.77;;;11.40;;
9809;SDS011;4944;52.514;13.192;2022-11-15T15:19:39;16.00;;;11.23;;
9809;SDS011;4944;52.514;13.192;2022-11-15T15:22:09;12.83;;;11.43;;
9809;SDS011;4944;52.514;13.192;2022-11-15T15:24:39;14.60;;;12.37;;
9809;SDS011;4944;52.514;13.192;2022-11-15T15:27:06;13.47;;;12.03;;
9809;SDS011;4944;52.514;13.192;2022-11-15T15:29:33;16.77;;;12.10;;
9809;SDS011;4944;52.514;13.192;2022-11-15T15:32:00;13.37;;;11.73;;
9809;SDS011;4944;52.514;13.192;2022-11-15T15:34:27;12.83;;;11.53;;
9809;SDS011;4944;52.514;13.192;2022-11-15T15:37:07;14.27;;;12.00;;
9809;SDS011;4944;52.514;13.192;2022-11-15T15:39:35;13.13;;;11.33;;
9809;SDS011;4944;52.514;13.192;2022-11-15T15:42:02;14.03;;;11.43;;
9809;SDS011;4944;52.514;13.192;2022-11-15T15:44:29;13.30;;;11.60;;
9809;SDS011;4944;52.514;13.192;2022-11-15T15:46:56;12.37;;;11.10;;